Valgardena — ICKG — position and weather

sailwx.info

Track history (hours):
 
Tides and Currents Weather Stations Pressure Air Temp Water Temp Dewpoint Dewpoint Depression Visibility Wind Speed Wind Dir Waves Ship Positions

Valgardena

Last reported at 2015-May-06 06:31 UTC. Time now 2015-May-06 08:27 UTC.
Position N 40°27' E 017°11'.

Length 184 m; draft 9.4 m.

Type: Ship. MMSI: 247243800.

Date/timePositionNaut miles runAvg speedWind from/ knotsBaromVisibWave heightAir tempDewpointWater temp
2015-May-06 06:31N 40°27' E 017°11'0 0.0
2015-May-06 05:31N 40°27' E 017°11'0 0.0
2015-May-06 04:31N 40°27' E 017°11'0 0.0
2015-May-06 03:31N 40°27' E 017°11'0 0.0
2015-May-06 02:31N 40°27' E 017°11'0 0.0
2015-May-06 01:31N 40°27' E 017°11'0 0.0
2015-May-06 00:32N 40°27' E 017°11'0 0.0
2015-May-05 23:31N 40°27' E 017°11'0 0.0
2015-May-05 22:32N 40°27' E 017°11'0 0.0
2015-May-05 21:32N 40°27' E 017°11'0 0.0
2015-May-05 19:25N 40°27' E 017°11'0 0.0
2015-May-05 18:31N 40°27' E 017°11'16 1.3
2015-May-05 06:33N 40°11' E 017°10'1111.0
2015-May-05 05:33N 39°60' E 017°12'1512.7
2015-May-05 04:25N 39°45' E 017°15'1112.8
2015-May-05 03:33N 39°35' E 017°17'21311.8
2015-May-04 09:33N 36°31' E 014°59'1312.8
2015-May-04 08:33N 36°35' E 014°44'1313.1
2015-May-04 07:33N 36°41' E 014°29'1313.2
2015-May-04 06:33N 36°47' E 014°15'1312.9
2015-May-04 05:33N 36°53' E 014°00'1413.6
2015-May-04 04:33N 36°59' E 013°45'1313.3
2015-May-04 03:33N 37°05' E 013°30'1313.0
2015-May-04 02:33N 37°10' E 013°15'1312.9
2015-May-04 01:33N 37°14' E 012°60'1312.6
2015-May-04 00:32N 37°21' E 012°46'1313.1
2015-May-03 23:33N 37°26' E 012°32'1313.3
2015-May-03 22:33N 37°32' E 012°16'1313.1
2015-May-03 21:33N 37°38' E 012°02'1412.7
2015-May-03 20:30N 37°43' E 011°46'3812.7
2015-May-03 17:29N 37°57' E 011°01'1912.9
2015-May-03 16:03N 37°56' E 010°38'812.7
2015-May-03 15:26N 37°55' E 010°28'3912.7
2015-May-03 12:21N 37°53' E 009°38'1412.8
2015-May-03 11:14N 37°52' E 009°20'18912.6
2015-May-02 20:12N 37°28' E 005°23'812.5
2015-May-02 19:33N 37°27' E 005°13'1312.5
2015-May-02 18:29N 37°24' E 004°56'1212.7
2015-May-02 17:33N 37°22' E 004°42'1312.8
2015-May-02 16:33N 37°20' E 004°26'2612.9
2015-May-02 14:33N 37°15' E 003°54'11512.7
2015-May-02 05:33N 36°55' E 001°33'1414.4
2015-May-02 04:32N 36°52' E 001°15'1414.3
2015-May-02 03:34N 36°49' E 000°58'1413.6
2015-May-02 02:33N 36°47' E 000°41'1413.6
2015-May-02 01:34N 36°45' E 000°25'1313.4
2015-May-02 00:33N 36°42' E 000°08'1313.1
2015-May-01 23:33N 36°40' W 000°08'1312.9
2015-May-01 22:33N 36°37' W 000°24'1312.9
2015-May-01 21:33N 36°35' W 000°40'1313.1
2015-May-01 20:33N 36°32' W 000°56'1613.2
2015-May-01 19:22N 36°29' W 001°15'1113.1
2015-May-01 18:33N 36°27' W 001°28'1313.4
2015-May-01 17:33N 36°25' W 001°44'1413.2
2015-May-01 16:32N 36°22' W 002°01'1212.8
2015-May-01 15:33N 36°20' W 002°16'1312.9
2015-May-01 14:33N 36°18' W 002°32'1313.0
2015-May-01 13:33N 36°17' W 002°48'1313.1
2015-May-01 12:33N 36°15' W 003°04'1313.2
2015-May-01 11:33N 36°12' W 003°20'1312.7
2015-May-01 10:33N 36°10' W 003°35'8113.6
2015-May-01 04:34N 35°60' W 005°15'12113.4
2015-Apr-30 19:33N 36°05' W 007°44'1313.5
2015-Apr-30 18:33N 36°09' W 008°00'1413.6
2015-Apr-30 17:33N 36°14' W 008°16'1413.3
2015-Apr-30 16:29N 36°18' W 008°33'1213.1
2015-Apr-30 15:32N 36°22' W 008°47'1312.8
2015-Apr-30 14:33N 36°26' W 009°02'1312.9
2015-Apr-30 13:31N 36°30' W 009°18'1212.6
2015-Apr-30 12:33N 36°38' W 009°30'1412.4
2015-Apr-30 11:27N 36°49' W 009°40'1813.0
2015-Apr-30 10:05N 37°07' W 009°44'713.4
2015-Apr-30 09:32N 37°14' W 009°47'1313.2
2015-Apr-30 08:33N 37°26' W 009°50'1313.0
2015-Apr-30 07:31N 37°39' W 009°54'1312.9
2015-Apr-30 06:32N 37°52' W 009°58'1313.1
2015-Apr-30 05:33N 38°04' W 010°02'1313.1
2015-Apr-30 04:33N 38°17' W 010°05'1313.1
2015-Apr-30 03:34N 38°30' W 010°09'1313.2
2015-Apr-30 02:33N 38°43' W 010°11'1313.1
2015-Apr-30 01:33N 38°56' W 010°11'1313.5
2015-Apr-30 00:33N 39°10' W 010°11'  
Track history (hours):
 
Tides and Currents Weather Stations Pressure Air Temp Water Temp Dewpoint Dewpoint Depression Visibility Wind Speed Wind Dir Waves Ship Positions

Valgardena

Last reported at 2015-May-06 06:31 UTC. Time now 2015-May-06 08:27 UTC.
Position N 40°27' E 017°11'.

Length 184 m; draft 9.4 m.

Type: Ship. MMSI: 247243800.

Date/timePositionNaut miles runAvg speedWind from/ knotsBaromVisibWave heightAir tempDewpointWater temp
2015-May-06 06:31N 40°27' E 017°11'0 0.0
2015-May-06 05:31N 40°27' E 017°11'0 0.0
2015-May-06 04:31N 40°27' E 017°11'0 0.0
2015-May-06 03:31N 40°27' E 017°11'0 0.0
2015-May-06 02:31N 40°27' E 017°11'0 0.0
2015-May-06 01:31N 40°27' E 017°11'0 0.0
2015-May-06 00:32N 40°27' E 017°11'0 0.0
2015-May-05 23:31N 40°27' E 017°11'0 0.0
2015-May-05 22:32N 40°27' E 017°11'0 0.0
2015-May-05 21:32N 40°27' E 017°11'0 0.0
2015-May-05 19:25N 40°27' E 017°11'0 0.0
2015-May-05 18:31N 40°27' E 017°11'16 1.3
2015-May-05 06:33N 40°11' E 017°10'1111.0
2015-May-05 05:33N 39°60' E 017°12'1512.7
2015-May-05 04:25N 39°45' E 017°15'1112.8
2015-May-05 03:33N 39°35' E 017°17'21311.8
2015-May-04 09:33N 36°31' E 014°59'1312.8
2015-May-04 08:33N 36°35' E 014°44'1313.1
2015-May-04 07:33N 36°41' E 014°29'1313.2
2015-May-04 06:33N 36°47' E 014°15'1312.9
2015-May-04 05:33N 36°53' E 014°00'1413.6
2015-May-04 04:33N 36°59' E 013°45'1313.3
2015-May-04 03:33N 37°05' E 013°30'1313.0
2015-May-04 02:33N 37°10' E 013°15'1312.9
2015-May-04 01:33N 37°14' E 012°60'1312.6
2015-May-04 00:32N 37°21' E 012°46'1313.1
2015-May-03 23:33N 37°26' E 012°32'1313.3
2015-May-03 22:33N 37°32' E 012°16'1313.1
2015-May-03 21:33N 37°38' E 012°02'1412.7
2015-May-03 20:30N 37°43' E 011°46'3812.7
2015-May-03 17:29N 37°57' E 011°01'1912.9
2015-May-03 16:03N 37°56' E 010°38'812.7
2015-May-03 15:26N 37°55' E 010°28'3912.7
2015-May-03 12:21N 37°53' E 009°38'1412.8
2015-May-03 11:14N 37°52' E 009°20'18912.6
2015-May-02 20:12N 37°28' E 005°23'812.5
2015-May-02 19:33N 37°27' E 005°13'1312.5
2015-May-02 18:29N 37°24' E 004°56'1212.7
2015-May-02 17:33N 37°22' E 004°42'1312.8
2015-May-02 16:33N 37°20' E 004°26'2612.9
2015-May-02 14:33N 37°15' E 003°54'11512.7
2015-May-02 05:33N 36°55' E 001°33'1414.4
2015-May-02 04:32N 36°52' E 001°15'1414.3
2015-May-02 03:34N 36°49' E 000°58'1413.6
2015-May-02 02:33N 36°47' E 000°41'1413.6
2015-May-02 01:34N 36°45' E 000°25'1313.4
2015-May-02 00:33N 36°42' E 000°08'1313.1
2015-May-01 23:33N 36°40' W 000°08'1312.9
2015-May-01 22:33N 36°37' W 000°24'1312.9
2015-May-01 21:33N 36°35' W 000°40'1313.1
2015-May-01 20:33N 36°32' W 000°56'1613.2
2015-May-01 19:22N 36°29' W 001°15'1113.1
2015-May-01 18:33N 36°27' W 001°28'1313.4
2015-May-01 17:33N 36°25' W 001°44'1413.2
2015-May-01 16:32N 36°22' W 002°01'1212.8
2015-May-01 15:33N 36°20' W 002°16'1312.9
2015-May-01 14:33N 36°18' W 002°32'1313.0
2015-May-01 13:33N 36°17' W 002°48'1313.1
2015-May-01 12:33N 36°15' W 003°04'1313.2
2015-May-01 11:33N 36°12' W 003°20'1312.7
2015-May-01 10:33N 36°10' W 003°35'8113.6
2015-May-01 04:34N 35°60' W 005°15'12113.4
2015-Apr-30 19:33N 36°05' W 007°44'1313.5
2015-Apr-30 18:33N 36°09' W 008°00'1413.6
2015-Apr-30 17:33N 36°14' W 008°16'1413.3
2015-Apr-30 16:29N 36°18' W 008°33'1213.1
2015-Apr-30 15:32N 36°22' W 008°47'1312.8
2015-Apr-30 14:33N 36°26' W 009°02'1312.9
2015-Apr-30 13:31N 36°30' W 009°18'1212.6
2015-Apr-30 12:33N 36°38' W 009°30'1412.4
2015-Apr-30 11:27N 36°49' W 009°40'1813.0
2015-Apr-30 10:05N 37°07' W 009°44'713.4
2015-Apr-30 09:32N 37°14' W 009°47'1313.2
2015-Apr-30 08:33N 37°26' W 009°50'1313.0
2015-Apr-30 07:31N 37°39' W 009°54'1312.9
2015-Apr-30 06:32N 37°52' W 009°58'1313.1
2015-Apr-30 05:33N 38°04' W 010°02'1313.1
2015-Apr-30 04:33N 38°17' W 010°05'1313.1
2015-Apr-30 03:34N 38°30' W 010°09'1313.2
2015-Apr-30 02:33N 38°43' W 010°11'1313.1
2015-Apr-30 01:33N 38°56' W 010°11'1313.5
2015-Apr-30 00:33N 39°10' W 010°11'  

Dump ship's entire track history